Marble Canyon, AZ (86036)

3:58 PM MST on August 29, 2016 (GMT -0700)
| | Change Station

Elev -9999 ft 0.00 °N, 0.00 °E | Updated

Clear
Clear
87 °F
Feels Like 87 °F
N
4
Wind Variable Wind from East
Gusts mph

Today
High -- | Low -- °F
--% Chance of Precip.
Yesterday
High -- | Low -- °F
Precip. -- in
Pressure 29.92 in
Visibility 10.0 miles
Clouds Clear
Dew Point 41 °F
Humidity 20%
Rainfall --
Snow Depth Not available.
5:55 AM 6:58 PM
Waning Crescent, 6% visible
METAR KPGA 292253Z AUTO 02007G14KT 10SM CLR 32/03 A3011 RMK AO2 SLP131 T03220028 TSNO
Pressure 29.92 in
Visibility 10.0 miles
Clouds Clear
Dew Point 41 °F
Humidity 20%
Rainfall --
Snow Depth Not available.
5:55 AM 6:58 PM
Waning Crescent, 6% visible
METAR KPGA 292253Z AUTO 02007G14KT 10SM CLR 32/03 A3011 RMK AO2 SLP131 T03220028 TSNO

10-Day Weather Forecast

Almanac

Astronomy

Aug. 29, 2016 Rise Set
Actual Time
Civil Twilight
Nautical Twilight
Astronomical Twilight
Moon
Length of Visible Light
Length of Day
Tomorrow will be .
, % of the Moon is Illuminated

Today's Extremes

State Highs State Lows

Community

WunderPhotos

Upload Photos

1,935,692 photos uploaded!

WunderBlog® & News

Nearby

Air Quality

  Air Quality AQ Index Pollutant
Not available.

Snow Depth

Station Depth Elevation

Earthquake Activity

City Distance Mag. Time & Date
Minimum magnitude displayed is 2.5.

Coastal Water Temperatures

Place Temperature

Stations

Nearby Weather Stations

Station Location Temp. Windchill Dew Point Humidity Wind Precip. Elev Updated Type
                   

Watches & Warnings

There are currently no watches in effect.